createdAt,value
2023-01-07T00:02:22.380Z,-17.78
2023-01-07T00:04:50.944Z,-20.69
2023-01-07T00:07:18.824Z,-20.98
2023-01-07T00:09:46.711Z,-20.42
2023-01-07T00:12:14.942Z,-21.48
2023-01-07T00:14:42.665Z,-23.35
2023-01-07T00:17:10.519Z,-22.22
2023-01-07T00:19:38.692Z,-20.59
2023-01-07T00:22:06.575Z,-17.91
2023-01-07T00:24:34.514Z,-17.77
2023-01-07T00:27:02.718Z,-19.07
2023-01-07T00:29:30.617Z,-20.77
2023-01-07T00:31:58.722Z,-16.98
2023-01-07T00:34:27.029Z,-18.26
2023-01-07T00:37:17.935Z,-18.14
2023-01-07T00:39:46.243Z,-20.10
2023-01-07T00:42:35.037Z,-20.87
2023-01-07T00:45:03.266Z,-19.22
2023-01-07T00:47:31.452Z,-17.14
2023-01-07T00:49:59.425Z,-17.90
2023-01-07T00:52:27.686Z,-19.34
2023-01-07T00:54:55.632Z,-16.16
2023-01-07T00:57:23.510Z,-14.55
2023-01-07T00:59:51.906Z,-13.67
2023-01-07T01:02:19.900Z,-13.13
2023-01-07T01:04:47.938Z,-13.35
2023-01-07T01:07:16.267Z,-14.42
2023-01-07T01:09:44.177Z,-13.53
2023-01-07T01:12:12.694Z,-14.26
2023-01-07T01:14:40.900Z,-15.29
2023-01-07T01:17:08.906Z,-17.78
2023-01-07T01:19:36.770Z,-19.90
2023-01-07T01:22:05.155Z,-21.36
2023-01-07T01:24:36.142Z,-22.05
2023-01-07T01:27:04.783Z,-21.94
2023-01-07T01:29:32.493Z,-19.97
2023-01-07T01:32:01.480Z,-19.77
2023-01-07T01:34:30.710Z,-20.50
2023-01-07T01:36:58.670Z,-20.32
2023-01-07T01:39:26.925Z,-20.79
2023-01-07T01:41:58.203Z,-23.34
2023-01-07T01:44:40.872Z,-23.03
2023-01-07T01:47:22.616Z,-22.57
2023-01-07T01:49:58.174Z,-23.26
2023-01-07T01:52:38.122Z,-21.19
2023-01-07T01:55:09.047Z,-23.52
2023-01-07T01:57:38.974Z,-24.18
2023-01-07T02:00:08.221Z,-23.46
2023-01-07T02:02:47.624Z,-22.64
2023-01-07T02:05:16.744Z,-21.49
2023-01-07T02:07:45.084Z,-20.17
2023-01-07T02:10:19.812Z,-21.95
2023-01-07T02:13:39.108Z,-22.19
2023-01-07T02:16:22.894Z,-23.34
2023-01-07T02:19:22.723Z,-21.72
2023-01-07T02:22:22.916Z,-20.70
2023-01-07T02:25:32.128Z,-21.32
2023-01-07T02:28:21.485Z,-22.29
2023-01-07T02:31:04.632Z,-21.51
2023-01-07T02:33:51.049Z,-21.79
2023-01-07T02:36:19.398Z,-21.87
2023-01-07T02:39:13.014Z,-22.16
2023-01-07T02:41:57.193Z,-23.81
2023-01-07T02:44:50.494Z,-24.06
2023-01-07T02:47:41.665Z,-23.85
2023-01-07T02:50:10.212Z,-24.76
2023-01-07T02:52:38.850Z,-24.25
2023-01-07T02:55:29.849Z,-23.97
2023-01-07T02:58:18.654Z,-24.06
2023-01-07T03:01:18.290Z,-23.68
2023-01-07T03:04:16.291Z,-22.63
2023-01-07T03:07:13.096Z,-21.98
2023-01-07T03:09:51.183Z,-21.59
2023-01-07T03:12:23.880Z,-22.93
2023-01-07T03:14:56.449Z,-23.95
2023-01-07T03:17:32.190Z,-22.48
2023-01-07T03:20:01.779Z,-22.67
2023-01-07T03:22:33.227Z,-22.77
2023-01-07T03:25:04.174Z,-24.01
2023-01-07T03:27:36.171Z,-24.31
2023-01-07T03:30:09.802Z,-24.68
2023-01-07T03:33:14.115Z,-24.21
2023-01-07T03:35:48.313Z,-24.62
2023-01-07T03:38:19.021Z,-24.94
2023-01-07T03:40:47.626Z,-24.41
2023-01-07T03:43:20.279Z,-24.16
2023-01-07T03:45:50.961Z,-24.08
2023-01-07T03:48:18.983Z,-24.24
2023-01-07T03:50:47.301Z,-24.44
2023-01-07T03:53:15.464Z,-23.45
2023-01-07T03:55:45.153Z,-21.86
2023-01-07T03:58:12.947Z,-22.61
2023-01-07T04:00:41.241Z,-23.85
2023-01-07T04:03:11.810Z,-24.83
2023-01-07T04:05:40.608Z,-22.74
2023-01-07T04:08:08.824Z,-23.46
2023-01-07T04:10:37.290Z,-24.47
2023-01-07T04:13:08.200Z,-24.16
2023-01-07T04:15:36.172Z,-21.11
2023-01-07T04:18:04.841Z,-22.97
2023-01-07T04:20:33.427Z,-23.43
2023-01-07T04:23:01.308Z,-24.05
2023-01-07T04:25:31.837Z,-24.97
2023-01-07T04:27:59.950Z,-24.96
2023-01-07T04:30:27.799Z,-25.14
2023-01-07T04:32:56.077Z,-23.24
2023-01-07T04:35:24.245Z,-20.26
2023-01-07T04:37:52.515Z,-20.85
2023-01-07T04:40:21.735Z,-23.90
2023-01-07T04:42:49.911Z,-24.67
2023-01-07T04:45:20.973Z,-21.26
2023-01-07T04:47:49.897Z,-20.76
2023-01-07T04:50:18.472Z,-23.53
2023-01-07T04:52:47.076Z,-19.83
2023-01-07T04:55:16.225Z,-21.32
2023-01-07T04:57:44.729Z,-24.26
2023-01-07T05:00:13.801Z,-23.36
2023-01-07T05:02:42.375Z,-22.79
2023-01-07T05:05:11.607Z,-23.85
2023-01-07T05:07:40.322Z,-25.32
2023-01-07T05:10:09.815Z,-24.19
2023-01-07T05:12:38.168Z,-24.45
2023-01-07T05:15:08.120Z,-21.89
2023-01-07T05:17:37.422Z,-24.75
2023-01-07T05:20:08.076Z,-21.72
2023-01-07T05:22:36.867Z,-23.82
2023-01-07T05:25:05.489Z,-23.11
2023-01-07T05:27:33.553Z,-24.67
2023-01-07T05:30:03.812Z,-23.47
2023-01-07T05:32:31.935Z,-20.23
2023-01-07T05:35:04.106Z,-18.79
2023-01-07T05:37:32.380Z,-18.28
2023-01-07T05:40:00.664Z,-17.73
2023-01-07T05:42:35.658Z,-19.92
2023-01-07T05:45:08.595Z,-18.00
2023-01-07T05:47:39.512Z,-15.29
2023-01-07T05:50:07.979Z,-16.22
2023-01-07T05:52:35.846Z,-14.93
2023-01-07T05:55:03.958Z,-14.28
2023-01-07T05:57:32.531Z,-14.39
2023-01-07T06:00:00.593Z,-15.14
2023-01-07T06:02:31.627Z,-15.00
2023-01-07T06:04:59.804Z,-14.64
2023-01-07T06:07:27.743Z,-14.32
2023-01-07T06:09:59.397Z,-14.09
2023-01-07T06:12:28.549Z,-14.40
2023-01-07T06:14:56.493Z,-13.94
2023-01-07T06:17:24.362Z,-14.05
2023-01-07T06:19:52.771Z,-14.47
2023-01-07T06:22:20.824Z,-15.42
2023-01-07T06:24:48.769Z,-17.31
2023-01-07T06:27:20.130Z,-17.12
2023-01-07T06:29:47.903Z,-16.37
2023-01-07T06:32:19.211Z,-18.41
2023-01-07T06:34:47.205Z,-14.88
2023-01-07T06:37:15.205Z,-14.92
2023-01-07T06:39:43.357Z,-14.76
2023-01-07T06:42:11.181Z,-14.61
2023-01-07T06:44:42.195Z,-16.50
2023-01-07T06:47:10.216Z,-16.49
2023-01-07T06:49:40.989Z,-18.38
2023-01-07T06:52:11.879Z,-22.25
2023-01-07T06:54:40.103Z,-19.23
2023-01-07T06:57:07.964Z,-20.30
2023-01-07T06:59:35.994Z,-21.48
2023-01-07T07:02:04.340Z,-21.06
2023-01-07T07:04:32.294Z,-21.00
2023-01-07T07:07:00.225Z,-22.30
2023-01-07T07:09:31.295Z,-23.52
2023-01-07T07:11:59.258Z,-22.53
2023-01-07T07:14:27.155Z,-23.50
2023-01-07T07:16:55.907Z,-21.96
2023-01-07T07:19:23.795Z,-24.47
2023-01-07T07:21:54.471Z,-24.70
2023-01-07T07:24:22.904Z,-23.56
2023-01-07T07:26:51.375Z,-23.74
2023-01-07T07:29:21.766Z,-24.48
2023-01-07T07:31:50.411Z,-24.69
2023-01-07T07:34:18.473Z,-22.56
2023-01-07T07:36:46.940Z,-24.74
2023-01-07T07:40:42.140Z,-22.50
2023-01-07T07:43:11.082Z,-21.23
2023-01-07T07:46:00.898Z,-23.98
2023-01-07T07:48:30.317Z,-21.12
2023-01-07T07:54:18.497Z,-24.08
2023-01-07T07:56:48.394Z,-23.53
2023-01-07T07:59:19.054Z,-19.86
2023-01-07T08:01:48.705Z,-23.70
2023-01-07T08:04:28.510Z,-23.82
2023-01-07T08:06:56.571Z,-23.13
2023-01-07T08:09:24.910Z,-22.69
2023-01-07T08:11:56.021Z,-20.94
2023-01-07T08:14:24.530Z,-23.55
2023-01-07T08:16:52.823Z,-23.92
2023-01-07T08:19:21.688Z,-23.27
2023-01-07T08:21:53.295Z,-24.38
2023-01-07T08:24:21.442Z,-24.38
2023-01-07T08:26:51.459Z,-24.33
2023-01-07T08:29:19.591Z,-22.85
2023-01-07T08:31:48.425Z,-23.85
2023-01-07T08:34:17.381Z,-21.70
2023-01-07T08:36:45.678Z,-23.29
2023-01-07T08:39:13.870Z,-21.48
2023-01-07T08:41:42.462Z,-21.56
2023-01-07T08:44:10.832Z,-22.65
2023-01-07T08:46:40.413Z,-22.36
2023-01-07T08:49:11.965Z,-23.77
2023-01-07T08:51:40.710Z,-23.12
2023-01-07T08:54:10.255Z,-23.19
2023-01-07T08:56:38.105Z,-17.46
2023-01-07T08:59:08.008Z,-20.64
2023-01-07T09:01:37.863Z,-19.79
2023-01-07T09:04:07.228Z,-22.51
2023-01-07T09:06:36.929Z,-22.60
2023-01-07T09:09:05.663Z,-22.45
2023-01-07T09:11:36.745Z,-22.03
2023-01-07T09:14:08.205Z,-21.19
2023-01-07T09:16:40.090Z,-18.33
2023-01-07T09:19:12.622Z,-19.57
2023-01-07T09:21:42.400Z,-22.12
2023-01-07T09:24:14.171Z,-20.88
2023-01-07T09:26:45.797Z,-22.18
2023-01-07T09:29:16.975Z,-22.25
2023-01-07T09:31:47.681Z,-20.40
2023-01-07T09:34:20.152Z,-22.23
2023-01-07T09:36:50.393Z,-21.57
2023-01-07T09:39:20.424Z,-21.71
2023-01-07T09:41:54.648Z,-22.87
2023-01-07T09:44:45.218Z,-22.21
2023-01-07T09:47:24.163Z,-20.43
2023-01-07T09:50:02.868Z,-21.17
2023-01-07T09:52:48.622Z,-19.86
2023-01-07T09:56:10.436Z,-21.41
2023-01-07T09:58:32.094Z,-22.02
2023-01-07T10:01:08.896Z,-18.75
2023-01-07T10:03:49.971Z,-19.78
2023-01-07T10:06:26.181Z,-18.44
2023-01-07T10:09:39.311Z,-19.08
2023-01-07T10:12:30.833Z,-21.46
2023-01-07T10:15:08.964Z,-19.46
2023-01-07T10:17:52.712Z,-17.38
2023-01-07T10:20:23.831Z,-19.39
2023-01-07T10:22:59.756Z,-20.25
2023-01-07T10:25:44.912Z,-20.26
2023-01-07T10:28:32.191Z,-18.78
2023-01-07T10:31:04.200Z,-17.50
2023-01-07T10:33:34.572Z,-19.14
2023-01-07T10:36:20.977Z,-19.50
2023-01-07T10:39:14.346Z,-19.68
2023-01-07T10:42:18.605Z,-19.88
2023-01-07T10:45:17.729Z,-18.43
2023-01-07T10:48:21.740Z,-17.18
2023-01-07T10:51:10.355Z,-17.49
2023-01-07T10:54:03.080Z,-17.01
2023-01-07T10:57:19.921Z,-17.42
2023-01-07T10:59:54.641Z,-17.64
2023-01-07T11:02:29.319Z,-18.00
2023-01-07T11:05:03.603Z,-19.30
2023-01-07T11:07:46.161Z,-18.14
2023-01-07T11:10:36.585Z,-17.49
2023-01-07T11:13:17.565Z,-19.02
2023-01-07T11:16:19.995Z,-17.38
2023-01-07T11:19:04.622Z,-17.99
2023-01-07T11:21:54.505Z,-18.54
2023-01-07T11:24:37.313Z,-19.84
2023-01-07T11:27:17.752Z,-20.69
2023-01-07T11:30:13.650Z,-19.69
2023-01-07T11:32:58.001Z,-21.68
2023-01-07T11:35:30.656Z,-22.00
2023-01-07T11:38:03.641Z,-21.70
2023-01-07T11:40:33.203Z,-17.30
2023-01-07T11:43:27.546Z,-17.65
2023-01-07T11:46:21.059Z,-19.85
2023-01-07T11:49:01.412Z,-17.00
2023-01-07T11:51:43.832Z,-18.59
2023-01-07T11:54:26.319Z,-19.96
2023-01-07T11:57:13.918Z,-20.26
2023-01-07T11:59:43.433Z,-18.78
2023-01-07T12:02:27.816Z,-18.83
2023-01-07T12:05:24.646Z,-20.69
2023-01-07T12:08:00.867Z,-18.55
2023-01-07T12:10:45.392Z,-20.18
2023-01-07T12:13:25.866Z,-19.74
2023-01-07T12:16:09.391Z,-20.35
2023-01-07T12:19:01.040Z,-18.96
2023-01-07T12:21:36.173Z,-19.54
2023-01-07T12:24:36.722Z,-19.16
2023-01-07T12:27:26.624Z,-19.48
2023-01-07T12:30:29.554Z,-18.28
2023-01-07T12:33:01.450Z,-19.07
2023-01-07T12:35:49.486Z,-18.40
2023-01-07T12:38:35.085Z,-20.29
2023-01-07T12:41:11.969Z,-20.40
2023-01-07T12:43:56.493Z,-17.53
2023-01-07T12:46:51.753Z,-17.46
2023-01-07T12:49:29.667Z,-17.15
2023-01-07T12:52:13.549Z,-16.24
2023-01-07T12:55:28.100Z,-16.81
2023-01-07T12:58:08.898Z,-15.65
2023-01-07T13:00:54.869Z,-15.97
2023-01-07T13:03:50.566Z,-16.69
2023-01-07T13:06:45.118Z,-16.26
2023-01-07T13:09:30.759Z,-15.33
2023-01-07T13:12:41.577Z,-14.33
2023-01-07T13:15:43.925Z,-13.31
2023-01-07T13:18:18.636Z,-12.28
2023-01-07T13:21:07.365Z,-12.06
2023-01-07T13:24:13.779Z,-12.07
2023-01-07T13:27:02.342Z,-12.19
2023-01-07T13:29:32.219Z,-12.08
2023-01-07T13:32:27.396Z,-12.08
2023-01-07T13:35:05.535Z,-12.04
2023-01-07T13:37:52.007Z,-12.00
2023-01-07T13:40:51.400Z,-12.03
2023-01-07T13:43:48.374Z,-12.16
2023-01-07T13:46:32.637Z,-12.02
2023-01-07T13:49:04.437Z,-11.98
2023-01-07T13:51:41.408Z,-12.02
2023-01-07T13:54:13.510Z,-12.01
2023-01-07T13:56:42.685Z,-11.97
2023-01-07T13:59:49.028Z,-11.99
2023-01-07T14:02:24.369Z,-12.00
2023-01-07T14:05:06.682Z,-12.02
2023-01-07T14:07:57.021Z,-12.02
2023-01-07T14:10:32.295Z,-12.14
2023-01-07T14:13:20.586Z,-12.10
2023-01-07T14:15:53.827Z,-12.07
2023-01-07T14:19:08.479Z,-12.01
2023-01-07T14:21:42.165Z,-12.02
2023-01-07T14:24:24.853Z,-12.06
2023-01-07T14:27:31.241Z,-12.09
2023-01-07T14:30:22.248Z,-11.97
2023-01-07T14:33:05.579Z,-12.09
2023-01-07T14:35:39.230Z,-12.17
2023-01-07T14:38:33.279Z,-12.17
2023-01-07T14:41:09.819Z,-12.22
2023-01-07T14:43:45.736Z,-12.32
2023-01-07T14:46:26.647Z,-12.31
2023-01-07T14:49:04.892Z,-12.22
2023-01-07T14:51:51.503Z,-12.22
2023-01-07T14:55:00.914Z,-12.28
2023-01-07T14:57:56.480Z,-12.28
2023-01-07T15:00:48.033Z,-12.35
2023-01-07T15:03:54.308Z,-12.35
2023-01-07T15:06:38.649Z,-12.43
2023-01-07T15:09:40.162Z,-12.37
2023-01-07T15:12:46.203Z,-12.36
2023-01-07T15:15:54.771Z,-12.54
2023-01-07T15:18:26.231Z,-12.55
2023-01-07T15:21:34.155Z,-12.60
2023-01-07T15:24:21.175Z,-12.88
2023-01-07T15:27:29.792Z,-12.80
2023-01-07T15:30:19.099Z,-12.73
2023-01-07T15:33:30.291Z,-12.67
2023-01-07T15:36:07.417Z,-12.96
2023-01-07T15:38:40.839Z,-12.77
2023-01-07T15:41:34.489Z,-12.93
2023-01-07T15:44:29.066Z,-13.04
2023-01-07T15:47:00.159Z,-13.01
2023-01-07T15:49:32.971Z,-12.81
2023-01-07T15:52:23.433Z,-12.66
2023-01-07T15:54:52.447Z,-12.56
2023-01-07T15:57:35.064Z,-12.54
2023-01-07T16:00:13.216Z,-12.67
2023-01-07T16:02:46.532Z,-12.66
2023-01-07T16:05:20.350Z,-12.63
2023-01-07T16:07:56.961Z,-12.66
2023-01-07T16:10:33.176Z,-12.67
2023-01-07T16:13:21.260Z,-12.68
2023-01-07T16:15:59.283Z,-12.92
2023-01-07T16:18:36.576Z,-13.21
2023-01-07T16:21:15.374Z,-12.92
2023-01-07T16:23:50.078Z,-12.87
2023-01-07T16:26:44.489Z,-12.83
2023-01-07T16:29:29.726Z,-12.81
2023-01-07T16:32:02.290Z,-12.71
2023-01-07T16:34:34.230Z,-12.83
2023-01-07T16:37:05.964Z,-12.90
2023-01-07T16:39:49.602Z,-13.00
2023-01-07T16:42:27.636Z,-12.91
2023-01-07T16:45:00.690Z,-12.80
2023-01-07T16:47:36.107Z,-12.83
2023-01-07T16:50:23.089Z,-12.93
2023-01-07T16:52:58.553Z,-13.01
2023-01-07T16:55:54.034Z,-12.89
2023-01-07T16:58:30.032Z,-12.91
2023-01-07T17:01:09.171Z,-13.01
2023-01-07T17:03:53.913Z,-13.06
2023-01-07T17:06:42.363Z,-12.89
2023-01-07T17:09:37.311Z,-13.45
2023-01-07T17:12:06.892Z,-13.68
2023-01-07T17:14:46.986Z,-13.47
2023-01-07T17:17:26.242Z,-13.26
2023-01-07T17:20:17.361Z,-13.45
2023-01-07T17:22:52.732Z,-13.44
2023-01-07T17:25:31.175Z,-13.45
2023-01-07T17:28:07.910Z,-13.33
2023-01-07T17:30:41.158Z,-13.90
2023-01-07T17:33:19.236Z,-13.23
2023-01-07T17:35:53.250Z,-13.31
2023-01-07T17:38:25.898Z,-13.02
2023-01-07T17:40:55.681Z,-13.26
2023-01-07T17:43:36.729Z,-13.23
2023-01-07T17:46:12.399Z,-13.06
2023-01-07T17:48:45.754Z,-13.06
2023-01-07T17:51:14.422Z,-13.71
2023-01-07T17:53:51.939Z,-13.27
2023-01-07T17:56:23.507Z,-14.02
2023-01-07T17:58:56.043Z,-15.98
2023-01-07T18:01:26.270Z,-14.56
2023-01-07T18:03:57.656Z,-14.42
2023-01-07T18:06:30.963Z,-14.61
2023-01-07T18:09:08.070Z,-15.39
2023-01-07T18:12:03.358Z,-15.54
2023-01-07T18:14:36.977Z,-16.54
2023-01-07T18:17:10.208Z,-17.76
2023-01-07T18:19:44.783Z,-20.25
2023-01-07T18:22:15.781Z,-20.12
2023-01-07T18:24:45.794Z,-21.13
2023-01-07T18:27:18.520Z,-21.06
2023-01-07T18:29:53.940Z,-20.61
2023-01-07T18:32:29.871Z,-20.00
2023-01-07T18:35:00.739Z,-20.96
2023-01-07T18:37:34.187Z,-21.62
2023-01-07T18:40:10.744Z,-20.89
2023-01-07T18:42:41.903Z,-20.89
2023-01-07T18:45:17.483Z,-18.43
2023-01-07T18:47:47.694Z,-17.29
2023-01-07T18:50:19.508Z,-16.59
2023-01-07T18:52:48.905Z,-16.09
2023-01-07T18:55:21.288Z,-16.01
2023-01-07T18:57:53.579Z,-16.65
2023-01-07T19:00:26.855Z,-16.03
2023-01-07T19:03:00.844Z,-16.28
2023-01-07T19:05:31.967Z,-16.57
2023-01-07T19:08:02.600Z,-17.53
2023-01-07T19:10:33.628Z,-19.21
2023-01-07T19:13:02.987Z,-18.19
2023-01-07T19:15:38.857Z,-17.40
2023-01-07T19:18:10.756Z,-19.41
2023-01-07T19:20:44.908Z,-18.19
2023-01-07T19:23:19.661Z,-19.07
2023-01-07T19:25:59.385Z,-17.03
2023-01-07T19:28:32.242Z,-15.80
2023-01-07T19:31:09.000Z,-15.62
2023-01-07T19:33:45.201Z,-15.29
2023-01-07T19:36:17.886Z,-15.57
2023-01-07T19:38:51.577Z,-15.46
2023-01-07T19:41:27.449Z,-16.33
2023-01-07T19:44:02.001Z,-16.58
2023-01-07T19:46:35.017Z,-17.43
2023-01-07T19:49:13.059Z,-15.79
2023-01-07T19:51:46.081Z,-15.59
2023-01-07T19:54:20.059Z,-15.25
2023-01-07T19:56:54.480Z,-15.56
2023-01-07T19:59:23.524Z,-15.29
2023-01-07T20:01:55.818Z,-15.30
2023-01-07T20:04:28.812Z,-15.07
2023-01-07T20:06:58.984Z,-15.68
2023-01-07T20:09:31.238Z,-14.81
2023-01-07T20:12:00.387Z,-14.42
2023-01-07T20:14:30.092Z,-14.73
2023-01-07T20:16:58.978Z,-14.61
2023-01-07T20:19:31.422Z,-14.47
2023-01-07T20:22:00.961Z,-14.46
2023-01-07T20:24:31.238Z,-14.68
2023-01-07T20:27:00.277Z,-14.44
2023-01-07T20:29:29.560Z,-14.30
2023-01-07T20:31:58.345Z,-14.57
2023-01-07T20:34:29.680Z,-14.62
2023-01-07T20:36:59.233Z,-14.66
2023-01-07T20:39:28.044Z,-15.20
2023-01-07T20:41:56.651Z,-14.87
2023-01-07T20:44:25.663Z,-15.07
2023-01-07T20:46:58.959Z,-15.05
2023-01-07T20:49:26.943Z,-15.71
2023-01-07T20:51:55.439Z,-15.61
2023-01-07T20:54:23.774Z,-16.17
2023-01-07T20:56:52.473Z,-15.50
2023-01-07T20:59:22.795Z,-15.32
2023-01-07T21:01:51.285Z,-15.65
2023-01-07T21:04:20.501Z,-15.16
2023-01-07T21:06:59.699Z,-16.28
2023-01-07T21:09:28.257Z,-15.52
2023-01-07T21:11:56.818Z,-15.40
2023-01-07T21:14:24.540Z,-15.19
2023-01-07T21:16:52.518Z,-15.67
2023-01-07T21:19:21.048Z,-16.09
2023-01-07T21:21:51.893Z,-17.17
2023-01-07T21:24:20.535Z,-16.92
2023-01-07T21:26:49.830Z,-18.23
2023-01-07T21:29:18.510Z,-18.01
2023-01-07T21:31:47.315Z,-17.75
2023-01-07T21:34:16.007Z,-18.53
2023-01-07T21:36:44.165Z,-18.14
2023-01-07T21:39:13.471Z,-18.41
2023-01-07T21:41:41.355Z,-18.98
2023-01-07T21:44:12.477Z,-20.71
2023-01-07T21:46:40.970Z,-20.94
2023-01-07T21:49:12.229Z,-21.22
2023-01-07T21:51:40.667Z,-21.39
2023-01-07T21:54:09.588Z,-21.53
2023-01-07T21:56:37.457Z,-20.73
2023-01-07T21:59:05.816Z,-19.88
2023-01-07T22:01:33.737Z,-20.52
2023-01-07T22:04:03.210Z,-19.64
2023-01-07T22:06:33.491Z,-19.16
2023-01-07T22:09:07.680Z,-18.57
2023-01-07T22:11:38.907Z,-18.75
2023-01-07T22:14:07.823Z,-19.25
2023-01-07T22:16:35.515Z,-19.68
2023-01-07T22:19:04.035Z,-18.85
2023-01-07T22:21:32.640Z,-20.06
2023-01-07T22:24:00.526Z,-21.02
2023-01-07T22:26:28.352Z,-21.13
2023-01-07T22:29:06.790Z,-21.21
2023-01-07T22:31:37.100Z,-21.16
2023-01-07T22:34:07.090Z,-20.12
2023-01-07T22:36:34.872Z,-20.24
2023-01-07T22:39:15.929Z,-19.79
2023-01-07T22:41:44.753Z,-20.73
2023-01-07T22:44:21.457Z,-20.82
2023-01-07T22:46:52.907Z,-20.97
2023-01-07T22:49:24.870Z,-21.12
2023-01-07T22:51:53.409Z,-21.16
2023-01-07T22:54:21.500Z,-21.08
2023-01-07T22:56:50.248Z,-19.91
2023-01-07T22:59:18.337Z,-19.34
2023-01-07T23:01:46.178Z,-18.79
2023-01-07T23:04:13.892Z,-19.04
2023-01-07T23:06:42.239Z,-19.74
2023-01-07T23:09:10.024Z,-19.88
2023-01-07T23:11:49.818Z,-20.29
2023-01-07T23:14:22.540Z,-20.74
2023-01-07T23:16:51.853Z,-20.75
2023-01-07T23:19:21.250Z,-20.47
2023-01-07T23:21:51.536Z,-20.65
2023-01-07T23:24:20.291Z,-20.53
2023-01-07T23:26:50.735Z,-20.12
2023-01-07T23:29:19.693Z,-20.27
2023-01-07T23:31:50.804Z,-19.44
2023-01-07T23:34:19.616Z,-19.59
2023-01-07T23:36:47.448Z,-18.99
2023-01-07T23:39:15.459Z,-18.44
2023-01-07T23:41:43.686Z,-18.37
2023-01-07T23:44:11.596Z,-18.96
2023-01-07T23:46:39.489Z,-18.39
2023-01-07T23:49:07.767Z,-19.09
2023-01-07T23:51:35.612Z,-19.83
2023-01-07T23:54:06.601Z,-20.10
2023-01-07T23:56:35.254Z,-20.30
2023-01-07T23:59:03.397Z,-20.20
